createdAt,value
2018-09-18T00:03:41.410Z,7
2018-09-18T00:08:43.822Z,8
2018-09-18T00:13:46.314Z,6
2018-09-18T00:18:48.711Z,6
2018-09-18T00:23:51.473Z,5
2018-09-18T00:28:53.600Z,6
2018-09-18T00:33:56.037Z,5
2018-09-18T00:38:58.471Z,6
2018-09-18T00:49:03.406Z,6
2018-09-18T00:54:05.806Z,6
2018-09-18T00:59:08.231Z,6
2018-09-18T01:04:10.781Z,5
2018-09-18T01:09:13.103Z,6
2018-09-18T01:14:15.564Z,6
2018-09-18T01:19:18.067Z,6
2018-09-18T01:24:20.443Z,6
2018-09-18T01:29:22.919Z,6
2018-09-18T01:34:25.359Z,6
2018-09-18T01:39:27.776Z,6
2018-09-18T01:44:30.281Z,6
2018-09-18T01:49:32.642Z,6
2018-09-18T01:54:35.094Z,6
2018-09-18T01:59:37.606Z,6
2018-09-18T02:04:40.088Z,6
2018-09-18T02:09:42.394Z,7
2018-09-18T02:14:44.995Z,6
2018-09-18T02:19:47.322Z,7
2018-09-18T02:24:49.723Z,8
2018-09-18T02:29:52.242Z,8
2018-09-18T02:34:54.637Z,7
2018-09-18T02:39:57.065Z,7
2018-09-18T02:44:59.526Z,6
2018-09-18T02:50:06.917Z,7
2018-09-18T02:55:04.391Z,7
2018-09-18T03:00:06.850Z,8
2018-09-18T03:05:09.284Z,9
2018-09-18T03:10:11.717Z,8
2018-09-18T03:15:14.115Z,7
2018-09-18T03:20:16.565Z,7
2018-09-18T03:25:19.050Z,7
2018-09-18T03:30:21.435Z,10
2018-09-18T03:35:23.934Z,10
2018-09-18T03:40:26.423Z,10
2018-09-18T03:45:28.768Z,10
2018-09-18T03:50:31.321Z,10
2018-09-18T03:55:33.693Z,10
2018-09-18T04:00:36.170Z,11
2018-09-18T04:05:43.581Z,11
2018-09-18T04:10:41.022Z,12
2018-09-18T04:15:43.422Z,12
2018-09-18T04:20:45.902Z,13
2018-09-18T04:25:48.326Z,12
2018-09-18T04:30:50.800Z,11
2018-09-18T04:35:53.251Z,11
2018-09-18T04:40:55.632Z,12
2018-09-18T04:45:58.157Z,12
2018-09-18T04:51:00.535Z,13
2018-09-18T04:56:02.992Z,12
2018-09-18T05:01:05.399Z,11
2018-09-18T05:06:07.819Z,12
2018-09-18T05:11:10.253Z,14
2018-09-18T05:16:12.703Z,13
2018-09-18T05:21:15.144Z,13
2018-09-18T05:26:17.585Z,13
2018-09-18T05:31:20.015Z,12
2018-09-18T05:36:22.483Z,12
2018-09-18T05:41:25.167Z,13
2018-09-18T05:46:27.372Z,13
2018-09-18T05:51:29.861Z,12
2018-09-18T05:56:32.219Z,12
2018-09-18T06:01:34.658Z,12
2018-09-18T06:06:37.149Z,13
2018-09-18T06:11:39.538Z,13
2018-09-18T06:16:42.068Z,13
2018-09-18T06:21:44.420Z,13
2018-09-18T06:26:46.942Z,13
2018-09-18T06:31:49.304Z,14
2018-09-18T06:36:51.801Z,14
2018-09-18T06:41:54.193Z,14
2018-09-18T06:46:56.627Z,15
2018-09-18T06:51:59.052Z,14
2018-09-18T06:57:01.627Z,14
2018-09-18T07:02:04.062Z,14
2018-09-18T07:07:06.401Z,13
2018-09-18T07:12:08.837Z,13
2018-09-18T07:17:11.283Z,13
2018-09-18T07:22:13.763Z,12
2018-09-18T07:27:16.135Z,11
2018-09-18T07:32:18.582Z,11
2018-09-18T07:37:21.126Z,11
2018-09-18T07:42:23.489Z,11
2018-09-18T07:47:26.023Z,11
2018-09-18T07:52:28.426Z,11
2018-09-18T07:57:30.808Z,10
2018-09-18T08:02:33.269Z,10
2018-09-18T08:07:35.714Z,8
2018-09-18T08:12:38.313Z,9
2018-09-18T08:17:40.599Z,9
2018-09-18T08:22:43.066Z,9
2018-09-18T08:27:45.423Z,8
2018-09-18T08:32:47.927Z,8
2018-09-18T08:42:52.785Z,6
2018-09-18T08:47:55.230Z,6
2018-09-18T08:52:57.718Z,6
2018-09-18T08:58:00.156Z,5
2018-09-18T09:03:02.535Z,5
2018-09-18T09:08:05.117Z,5
2018-09-18T09:13:07.697Z,5
2018-09-18T09:18:10.023Z,5
2018-09-18T09:23:12.303Z,5
2018-09-18T09:28:14.795Z,4
2018-09-18T09:33:17.192Z,5
2018-09-18T09:38:19.703Z,5
2018-09-18T09:43:22.366Z,5
2018-09-18T09:48:24.775Z,4
2018-09-18T09:53:27.003Z,4
2018-09-18T09:58:29.389Z,3
2018-09-18T10:03:31.843Z,4
2018-09-18T10:08:34.280Z,5
2018-09-18T10:13:36.710Z,4
2018-09-18T10:18:39.332Z,4
2018-09-18T10:23:41.601Z,3
2018-09-18T10:28:44.039Z,3
2018-09-18T10:38:48.898Z,6
2018-09-18T10:43:51.712Z,4
2018-09-18T10:48:53.799Z,4
2018-09-18T10:53:56.218Z,4
2018-09-18T10:58:58.709Z,3
2018-09-18T11:04:01.230Z,4
2018-09-18T11:09:03.632Z,5
2018-09-18T11:14:06.371Z,4
2018-09-18T11:19:08.507Z,4
2018-09-18T11:24:11.005Z,4
2018-09-18T11:29:13.366Z,4
2018-09-18T11:34:15.802Z,4
2018-09-18T11:39:18.277Z,4
2018-09-18T11:44:20.743Z,4
2018-09-18T11:49:23.108Z,5
2018-09-18T11:54:25.616Z,3
2018-09-18T11:59:28.123Z,3
2018-09-18T12:04:30.523Z,4
2018-09-18T12:09:32.877Z,3
2018-09-18T12:14:35.316Z,3
2018-09-18T12:19:37.858Z,4
2018-09-18T12:24:40.193Z,4
2018-09-18T12:29:42.639Z,3
2018-09-18T12:34:45.108Z,3
2018-09-18T12:39:47.563Z,3
2018-09-18T12:44:49.982Z,3
2018-09-18T12:49:52.665Z,3
2018-09-18T12:54:54.911Z,4
2018-09-18T12:59:57.594Z,4
2018-09-18T13:05:00.004Z,4
2018-09-18T13:10:02.364Z,3
2018-09-18T13:15:04.699Z,3
2018-09-18T13:20:07.296Z,4
2018-09-18T13:25:09.497Z,4
2018-09-18T13:30:11.973Z,3
2018-09-18T13:35:14.450Z,4
2018-09-18T13:40:16.853Z,3
2018-09-18T13:45:19.363Z,5
2018-09-18T13:50:21.834Z,3
2018-09-18T13:55:24.197Z,3
2018-09-18T14:00:26.873Z,3
2018-09-18T14:05:29.132Z,2
2018-09-18T14:10:31.500Z,3
2018-09-18T14:15:33.987Z,2
2018-09-18T14:20:36.389Z,3
2018-09-18T14:25:38.911Z,2
2018-09-18T14:30:41.358Z,3
2018-09-18T14:35:43.788Z,2
2018-09-18T14:40:46.137Z,2
2018-09-18T14:45:48.636Z,2
2018-09-18T14:50:51.123Z,2
2018-09-18T14:55:53.454Z,2
2018-09-18T15:00:56.192Z,2
2018-09-18T15:05:58.413Z,3
2018-09-18T15:11:00.855Z,3
2018-09-18T15:16:03.252Z,3
2018-09-18T15:21:05.708Z,3
2018-09-18T15:26:08.148Z,3
2018-09-18T15:31:10.759Z,3
2018-09-18T15:36:13.018Z,3
2018-09-18T15:41:15.457Z,3
2018-09-18T15:46:17.956Z,3
2018-09-18T15:51:20.376Z,4
2018-09-18T15:56:22.830Z,4
2018-09-18T16:01:25.344Z,4
2018-09-18T16:06:28.026Z,4
2018-09-18T16:11:30.217Z,4
2018-09-18T16:16:32.619Z,4
2018-09-18T16:21:35.035Z,3
2018-09-18T16:26:37.444Z,4
2018-09-18T16:31:39.902Z,4
2018-09-18T16:36:42.366Z,4
2018-09-18T16:41:45.206Z,4
2018-09-18T16:46:47.299Z,4
2018-09-18T16:51:49.659Z,4
2018-09-18T16:56:52.136Z,3
2018-09-18T17:01:54.542Z,4
2018-09-18T17:06:57.277Z,4
2018-09-18T17:11:59.430Z,4
2018-09-18T17:17:01.919Z,4
2018-09-18T17:22:04.319Z,4
2018-09-18T17:27:06.746Z,4
2018-09-18T17:32:09.202Z,4
2018-09-18T17:37:11.770Z,4
2018-09-18T17:42:14.102Z,4
2018-09-18T17:47:16.588Z,3
2018-09-18T17:52:19.027Z,4
2018-09-18T17:57:21.496Z,4
2018-09-18T18:02:23.934Z,3
2018-09-18T18:07:26.289Z,4
2018-09-18T18:12:28.758Z,4
2018-09-18T18:17:31.229Z,4
2018-09-18T18:22:33.626Z,4
2018-09-18T18:27:36.154Z,4
2018-09-18T18:32:38.509Z,4
2018-09-18T18:37:40.981Z,4
2018-09-18T18:42:43.648Z,4
2018-09-18T18:47:46.003Z,5
2018-09-18T18:52:48.273Z,5
2018-09-18T18:57:50.728Z,4
2018-09-18T19:02:53.402Z,4
2018-09-18T19:07:55.645Z,5
2018-09-18T19:12:58.046Z,4
2018-09-18T19:18:00.590Z,4
2018-09-18T19:23:02.918Z,5
2018-09-18T19:28:05.432Z,5
2018-09-18T19:33:07.967Z,6
2018-09-18T19:43:12.802Z,6
2018-09-18T19:48:15.156Z,7
2018-09-18T19:53:17.576Z,6
2018-09-18T19:58:20.005Z,6
2018-09-18T20:03:22.615Z,7
2018-09-18T20:08:24.973Z,6
2018-09-18T20:13:27.444Z,6
2018-09-18T20:18:29.768Z,6
2018-09-18T20:28:34.697Z,6
2018-09-18T20:33:37.171Z,7
2018-09-18T20:38:39.809Z,7
2018-09-18T20:43:42.152Z,7
2018-09-18T20:48:44.437Z,7
2018-09-18T20:53:46.856Z,7
2018-09-18T20:58:49.291Z,7
2018-09-18T21:03:51.836Z,7
2018-09-18T21:08:54.172Z,7
2018-09-18T21:13:57.267Z,7
2018-09-18T21:18:59.083Z,7
2018-09-18T21:24:01.564Z,7
2018-09-18T21:29:03.962Z,7
2018-09-18T21:34:06.454Z,7
2018-09-18T21:39:08.832Z,7
2018-09-18T21:44:12.570Z,7
2018-09-18T21:49:13.708Z,7
2018-09-18T21:54:16.254Z,8
2018-09-18T21:59:18.696Z,8
2018-09-18T22:04:21.131Z,8
2018-09-18T22:09:23.504Z,8
2018-09-18T22:14:26.085Z,8
2018-09-18T22:19:28.379Z,9
2018-09-18T22:24:30.831Z,8
2018-09-18T22:29:33.314Z,8
2018-09-18T22:34:35.680Z,8
2018-09-18T22:39:38.126Z,8
2018-09-18T22:44:40.562Z,8
2018-09-18T22:49:43.025Z,8
2018-09-18T22:54:45.433Z,8
2018-09-18T22:59:47.887Z,8
2018-09-18T23:04:50.568Z,8
2018-09-18T23:09:52.947Z,10
2018-09-18T23:14:55.204Z,9
2018-09-18T23:19:57.671Z,8
2018-09-18T23:25:00.151Z,9
2018-09-18T23:30:02.748Z,9
2018-09-18T23:35:05.041Z,9
2018-09-18T23:40:07.762Z,9
2018-09-18T23:45:09.866Z,9
2018-09-18T23:55:14.754Z,8
